createdAt,value
2023-03-21T06:03:09.731Z,35.74
2023-03-21T06:04:10.877Z,35.70
2023-03-21T06:05:10.778Z,35.83
2023-03-21T06:06:10.765Z,35.79
2023-03-21T06:07:10.807Z,35.86
2023-03-21T06:08:09.846Z,35.84
2023-03-21T06:09:09.837Z,35.91
2023-03-21T06:10:10.883Z,35.94
2023-03-21T06:11:11.005Z,35.95
2023-03-21T06:12:11.070Z,35.90
2023-03-21T06:13:10.060Z,35.91
2023-03-21T06:14:11.130Z,35.85
2023-03-21T06:15:11.138Z,35.87
2023-03-21T06:16:10.246Z,35.84
2023-03-21T06:17:10.210Z,35.99
2023-03-21T06:18:11.243Z,35.89
2023-03-21T06:19:11.314Z,35.84
2023-03-21T06:20:11.320Z,35.99
2023-03-21T06:21:11.354Z,35.86
2023-03-21T06:22:11.405Z,35.95
2023-03-21T06:23:11.436Z,35.98
2023-03-21T06:24:10.476Z,35.93
2023-03-21T06:25:10.502Z,35.95
2023-03-21T06:26:11.537Z,35.93
2023-03-21T06:27:11.578Z,35.87
2023-03-21T06:28:11.619Z,35.89
2023-03-21T06:29:10.635Z,36.01
2023-03-21T06:30:10.675Z,35.95
2023-03-21T06:31:11.732Z,35.87
2023-03-21T06:32:10.730Z,35.80
2023-03-21T06:33:11.748Z,35.91
2023-03-21T06:34:11.811Z,35.98
2023-03-21T06:35:10.796Z,35.92
2023-03-21T06:36:10.785Z,35.94
2023-03-21T06:37:11.816Z,35.94
2023-03-21T06:38:11.858Z,35.76
2023-03-21T06:39:11.877Z,35.85
2023-03-21T06:40:11.903Z,35.80
2023-03-21T06:41:11.933Z,35.91
2023-03-21T06:42:11.936Z,35.79
2023-03-21T06:43:11.952Z,35.75
2023-03-21T06:44:11.984Z,35.73
2023-03-21T06:45:11.993Z,35.83
2023-03-21T06:46:12.027Z,35.86
2023-03-21T06:47:12.038Z,35.86
2023-03-21T06:48:12.149Z,35.91
2023-03-21T06:49:12.076Z,35.80
2023-03-21T06:50:12.084Z,35.80
2023-03-21T06:51:12.147Z,35.86
2023-03-21T06:52:12.129Z,35.80
2023-03-21T06:53:12.164Z,35.86
2023-03-21T06:54:12.296Z,35.84
2023-03-21T06:55:12.167Z,35.72
2023-03-21T06:56:12.188Z,35.83
2023-03-21T06:57:12.219Z,35.76
2023-03-21T06:58:12.235Z,35.83
2023-03-21T06:59:12.254Z,35.76
2023-03-21T07:00:12.250Z,35.83
2023-03-21T07:01:11.318Z,35.75
2023-03-21T07:02:11.402Z,35.94
2023-03-21T07:03:12.324Z,35.86
2023-03-21T07:04:12.336Z,35.78
2023-03-21T07:05:12.341Z,35.86
2023-03-21T07:06:12.359Z,35.78
2023-03-21T07:07:12.413Z,35.84
2023-03-21T07:09:12.443Z,35.79
2023-03-21T07:10:12.477Z,35.73
2023-03-21T07:11:12.492Z,35.78
2023-03-21T07:12:12.527Z,35.86
2023-03-21T07:13:12.560Z,35.80
2023-03-21T07:14:11.592Z,35.89
2023-03-21T07:15:12.624Z,35.76
2023-03-21T07:16:11.756Z,35.81
2023-03-21T07:17:12.679Z,35.79
2023-03-21T07:18:12.732Z,35.90
2023-03-21T07:19:12.764Z,35.84
2023-03-21T07:20:11.788Z,35.87
2023-03-21T07:21:11.827Z,35.78
2023-03-21T07:22:12.826Z,35.91
2023-03-21T07:23:12.873Z,35.80
2023-03-21T07:24:11.868Z,35.86
2023-03-21T07:25:11.988Z,35.91
2023-03-21T07:26:12.914Z,35.83
2023-03-21T07:27:12.963Z,35.87
2023-03-21T07:28:12.980Z,35.86
2023-03-21T07:29:13.033Z,35.89
2023-03-21T07:30:13.070Z,35.89
2023-03-21T07:31:12.117Z,35.91
2023-03-21T07:32:13.098Z,35.82
2023-03-21T07:33:13.132Z,35.81
2023-03-21T07:34:12.154Z,35.84
2023-03-21T07:35:13.196Z,35.80
2023-03-21T07:36:13.305Z,35.76
2023-03-21T07:37:13.263Z,35.86
2023-03-21T07:38:13.320Z,35.85
2023-03-21T07:39:13.376Z,35.84
2023-03-21T07:40:12.412Z,35.82
2023-03-21T07:41:13.475Z,35.89
2023-03-21T07:42:13.498Z,35.89
2023-03-21T07:43:13.514Z,35.91
2023-03-21T07:44:13.541Z,35.89
2023-03-21T07:45:13.587Z,35.80
2023-03-21T07:46:13.676Z,35.78
2023-03-21T07:47:13.647Z,35.82
2023-03-21T07:48:13.847Z,35.83
2023-03-21T07:49:13.720Z,35.82
2023-03-21T07:50:13.745Z,35.83
2023-03-21T07:51:13.834Z,35.71
2023-03-21T07:52:13.986Z,35.91
2023-03-21T07:53:12.863Z,35.89
2023-03-21T07:54:15.029Z,36.35
2023-03-21T07:55:14.373Z,36.29
2023-03-21T07:56:13.960Z,36.29
2023-03-21T07:57:14.187Z,36.70
2023-03-21T07:58:14.190Z,36.71
2023-03-21T07:59:14.040Z,36.82
2023-03-21T08:00:14.072Z,36.69
2023-03-21T08:01:14.075Z,36.50
2023-03-21T08:02:14.133Z,36.32
2023-03-21T08:03:14.033Z,36.60
2023-03-21T08:04:14.020Z,36.49
2023-03-21T08:05:14.020Z,36.21
2023-03-21T08:06:14.029Z,35.82
2023-03-21T08:07:13.027Z,35.03
2023-03-21T08:08:13.083Z,35.32
2023-03-21T08:09:14.089Z,35.24
2023-03-21T08:10:14.076Z,34.96
2023-03-21T08:11:14.123Z,35.26
2023-03-21T08:12:14.196Z,35.00
2023-03-21T08:13:14.168Z,35.03
2023-03-21T08:14:14.134Z,35.04
2023-03-21T08:15:14.156Z,35.13
2023-03-21T08:16:14.179Z,35.12
2023-03-21T08:17:14.254Z,35.13
2023-03-21T08:18:14.293Z,35.19
2023-03-21T08:19:14.372Z,35.23
2023-03-21T08:20:14.376Z,35.29
2023-03-21T08:21:14.432Z,35.32
2023-03-21T08:22:13.504Z,35.37
2023-03-21T08:23:14.518Z,35.37
2023-03-21T08:24:14.536Z,35.43
2023-03-21T08:25:14.573Z,35.46
2023-03-21T08:26:14.597Z,35.57
2023-03-21T08:27:14.689Z,35.58
2023-03-21T08:28:14.691Z,35.58
2023-03-21T08:29:14.650Z,35.55
2023-03-21T08:30:14.685Z,35.56
2023-03-21T08:31:14.732Z,35.81
2023-03-21T08:32:14.729Z,35.74
2023-03-21T08:33:14.678Z,35.71
2023-03-21T08:34:13.687Z,35.76
2023-03-21T08:35:14.668Z,35.84
2023-03-21T08:36:14.737Z,35.81
2023-03-21T08:37:13.687Z,35.84
2023-03-21T08:38:14.677Z,35.83
2023-03-21T08:39:13.713Z,35.80
2023-03-21T08:40:13.705Z,35.81
2023-03-21T08:41:13.706Z,35.87
2023-03-21T08:42:13.692Z,35.92
2023-03-21T08:43:15.037Z,35.95
2023-03-21T08:44:14.689Z,35.95
2023-03-21T08:45:14.874Z,36.03
2023-03-21T08:46:13.708Z,36.10
2023-03-21T08:47:14.718Z,36.00
2023-03-21T08:48:14.784Z,35.99
2023-03-21T08:49:14.742Z,36.15
2023-03-21T08:50:14.845Z,36.28
2023-03-21T08:51:14.765Z,36.57
2023-03-21T08:52:14.753Z,36.33
2023-03-21T08:53:13.756Z,35.51
2023-03-21T08:54:14.789Z,35.01
2023-03-21T08:55:14.863Z,34.36
2023-03-21T08:56:14.881Z,34.10
2023-03-21T08:57:14.940Z,35.12
2023-03-21T08:58:14.003Z,35.51
2023-03-21T08:59:14.045Z,35.22
2023-03-21T09:00:15.311Z,35.09
2023-03-21T09:01:15.113Z,35.06
2023-03-21T09:02:14.128Z,34.88
2023-03-21T09:03:15.253Z,34.76
2023-03-21T09:04:15.204Z,34.97
2023-03-21T09:05:15.278Z,35.07
2023-03-21T09:06:15.191Z,35.37
2023-03-21T09:07:15.186Z,35.30
2023-03-21T09:08:15.173Z,35.21
2023-03-21T09:09:15.238Z,35.17
2023-03-21T09:10:20.970Z,35.36
2023-03-21T09:11:15.212Z,35.46
2023-03-21T09:12:15.186Z,35.44
2023-03-21T09:13:15.185Z,35.49
2023-03-21T09:14:15.172Z,35.45
2023-03-21T09:15:15.210Z,35.49
2023-03-21T09:16:15.188Z,35.50
2023-03-21T09:17:15.165Z,35.55
2023-03-21T09:18:15.175Z,35.62
2023-03-21T09:19:15.143Z,35.47
2023-03-21T09:21:15.125Z,35.54
2023-03-21T09:22:14.136Z,35.86
2023-03-21T09:23:15.223Z,35.76
2023-03-21T09:24:15.093Z,35.78
2023-03-21T09:25:15.105Z,35.85
2023-03-21T09:26:15.376Z,35.84
2023-03-21T09:27:15.126Z,35.84
2023-03-21T09:28:15.068Z,35.78
2023-03-21T09:29:16.205Z,35.91
2023-03-21T09:30:15.054Z,36.35
2023-03-21T09:31:15.382Z,36.20
2023-03-21T09:32:15.063Z,36.17
2023-03-21T09:33:15.055Z,36.13
2023-03-21T09:34:15.037Z,36.13
2023-03-21T09:35:15.089Z,36.16
2023-03-21T09:36:15.297Z,36.12
2023-03-21T09:37:15.241Z,36.08
2023-03-21T09:38:15.269Z,36.07
2023-03-21T09:39:14.358Z,36.16
2023-03-21T09:40:15.448Z,36.19
2023-03-21T09:41:14.765Z,36.18
2023-03-21T09:42:15.951Z,36.22
2023-03-21T09:43:15.569Z,36.35
2023-03-21T09:44:15.635Z,36.25
2023-03-21T09:45:14.684Z,36.41
2023-03-21T09:46:15.805Z,36.45
2023-03-21T09:47:15.782Z,36.44
2023-03-21T09:48:15.906Z,36.48
2023-03-21T09:49:15.924Z,36.36
2023-03-21T09:50:15.968Z,36.41
2023-03-21T09:51:16.055Z,36.43
2023-03-21T09:52:16.073Z,36.49
2023-03-21T09:53:15.093Z,36.46
2023-03-21T09:54:16.243Z,36.72
2023-03-21T09:55:16.286Z,37.01
2023-03-21T09:56:16.370Z,36.96
2023-03-21T09:57:15.307Z,36.82
2023-03-21T09:58:16.438Z,36.82
2023-03-21T09:59:16.388Z,37.12
2023-03-21T10:00:16.458Z,37.01
2023-03-21T10:01:15.687Z,36.92
2023-03-21T10:02:15.563Z,36.90
2023-03-21T10:03:16.624Z,36.90
2023-03-21T10:04:15.765Z,36.90
2023-03-21T10:05:16.692Z,37.06
2023-03-21T10:06:16.742Z,37.06
2023-03-21T10:07:16.821Z,37.23
2023-03-21T10:08:16.830Z,37.23
2023-03-21T10:09:15.890Z,37.09
2023-03-21T10:10:16.937Z,37.16
2023-03-21T10:11:15.989Z,37.17
2023-03-21T10:12:17.037Z,37.30
2023-03-21T10:13:16.095Z,37.14
2023-03-21T10:14:17.129Z,37.17
2023-03-21T10:15:16.241Z,37.12
2023-03-21T10:16:17.417Z,37.34
2023-03-21T10:18:17.259Z,37.34
2023-03-21T10:19:17.294Z,37.40
2023-03-21T10:20:17.300Z,37.32
2023-03-21T10:21:37.385Z,37.40
2023-03-21T10:22:17.319Z,37.40
2023-03-21T10:23:17.309Z,37.38
2023-03-21T10:24:17.306Z,37.33
2023-03-21T10:25:16.319Z,37.37
2023-03-21T10:26:17.583Z,37.39
2023-03-21T10:27:16.280Z,37.37
2023-03-21T10:28:17.282Z,37.55
2023-03-21T10:29:16.308Z,37.50
2023-03-21T10:30:17.326Z,37.47
2023-03-21T10:31:17.348Z,37.40
2023-03-21T10:32:17.266Z,37.26
2023-03-21T10:33:17.318Z,37.46
2023-03-21T10:34:17.259Z,37.49
2023-03-21T10:35:17.269Z,37.52
2023-03-21T10:36:17.313Z,37.52
2023-03-21T10:37:17.316Z,37.50
2023-03-21T10:38:16.404Z,37.70
2023-03-21T10:39:17.448Z,38.18
2023-03-21T10:40:17.472Z,37.84
2023-03-21T10:41:17.883Z,37.90
2023-03-21T10:42:17.555Z,37.80
2023-03-21T10:43:17.595Z,37.65
2023-03-21T10:44:17.658Z,37.70
2023-03-21T10:45:16.698Z,37.59
2023-03-21T10:46:18.077Z,37.59
2023-03-21T10:47:17.027Z,37.38
2023-03-21T10:48:18.047Z,38.04
2023-03-21T10:49:17.824Z,38.57
2023-03-21T10:50:17.983Z,38.57
2023-03-21T10:51:18.404Z,38.75
2023-03-21T10:52:18.004Z,39.10
2023-03-21T10:53:18.018Z,39.60
2023-03-21T10:54:18.008Z,39.26
2023-03-21T10:55:18.051Z,39.28
2023-03-21T10:56:18.095Z,39.65
2023-03-21T10:57:17.174Z,39.75
2023-03-21T10:58:18.139Z,39.99
2023-03-21T10:59:18.833Z,40.21
2023-03-21T11:00:17.131Z,40.53
2023-03-21T11:01:18.166Z,40.04
2023-03-21T11:02:18.297Z,40.13
2023-03-21T11:03:18.224Z,40.11
2023-03-21T11:04:18.224Z,40.19
2023-03-21T11:05:20.500Z,40.34
2023-03-21T11:06:18.234Z,40.30
2023-03-21T11:07:18.225Z,40.75
2023-03-21T11:08:18.253Z,40.41
2023-03-21T11:09:18.205Z,40.40
2023-03-21T11:10:28.057Z,40.62
2023-03-21T11:11:19.347Z,40.79
2023-03-21T11:12:18.184Z,40.70
2023-03-21T11:13:18.196Z,40.76
2023-03-21T11:14:18.171Z,40.68
2023-03-21T11:15:17.170Z,40.85
2023-03-21T11:16:18.233Z,40.90
2023-03-21T11:17:18.176Z,40.98
2023-03-21T11:18:18.155Z,40.76
2023-03-21T11:19:17.289Z,40.77
2023-03-21T11:20:18.237Z,41.05
2023-03-21T11:21:17.153Z,41.11
2023-03-21T11:22:17.117Z,40.89
2023-03-21T11:23:20.518Z,40.96
2023-03-21T11:24:18.100Z,41.05
2023-03-21T11:25:18.090Z,41.25
2023-03-21T11:26:18.115Z,41.02
2023-03-21T11:27:17.091Z,41.06
2023-03-21T11:28:18.081Z,41.03
2023-03-21T11:29:18.442Z,41.05
2023-03-21T11:30:18.141Z,41.16
2023-03-21T11:31:18.164Z,41.06
2023-03-21T11:32:18.048Z,40.92
2023-03-21T11:33:18.040Z,41.03
2023-03-21T11:34:18.054Z,41.02
2023-03-21T11:35:19.717Z,41.11
2023-03-21T11:36:17.464Z,40.94
2023-03-21T11:38:17.344Z,40.97
2023-03-21T11:41:18.514Z,40.88
2023-03-21T11:44:18.405Z,40.90
2023-03-21T11:48:18.474Z,40.98
2023-03-21T11:49:18.428Z,41.20
2023-03-21T11:51:17.484Z,41.82
2023-03-21T11:53:18.534Z,41.31
2023-03-21T11:55:17.727Z,40.83
2023-03-21T11:56:18.797Z,41.10
2023-03-21T11:57:18.730Z,41.01
2023-03-21T11:58:17.710Z,40.99
2023-03-21T11:59:17.626Z,40.99
2023-03-21T12:01:17.721Z,41.03
2023-03-21T12:14:19.233Z,41.04
2023-03-21T12:18:19.534Z,40.90
2023-03-21T12:25:19.814Z,41.27
2023-03-21T12:26:19.874Z,41.46
2023-03-21T12:30:19.133Z,41.48
2023-03-21T12:48:20.472Z,42.20
2023-03-21T12:55:20.399Z,42.29
2023-03-21T13:23:20.229Z,42.42
2023-03-21T13:37:20.842Z,42.49
2023-03-21T13:55:20.753Z,42.42
2023-03-21T13:56:21.817Z,42.45
2023-03-21T13:58:21.920Z,42.41
2023-03-21T14:05:21.349Z,42.43
2023-03-21T14:21:24.290Z,42.28
2023-03-21T14:22:23.303Z,42.30
2023-03-21T14:23:23.314Z,42.31
2023-03-21T14:24:23.380Z,42.41
2023-03-21T14:25:27.176Z,42.25
2023-03-21T14:29:26.392Z,42.32
2023-03-21T14:30:23.389Z,42.39
2023-03-21T14:31:23.443Z,42.34
2023-03-21T14:32:23.381Z,42.30
2023-03-21T14:34:23.383Z,42.33
2023-03-21T14:35:23.461Z,42.45
2023-03-21T14:36:22.502Z,42.36
2023-03-21T14:37:23.344Z,42.33
2023-03-21T14:38:23.332Z,42.34
2023-03-21T14:39:22.330Z,42.25
2023-03-21T14:40:23.313Z,42.35
2023-03-21T14:41:23.326Z,42.31
2023-03-21T14:42:23.316Z,42.26
2023-03-21T14:43:22.324Z,42.19
2023-03-21T14:44:23.304Z,42.22
2023-03-21T14:46:23.339Z,42.21
2023-03-21T14:47:23.315Z,42.15
2023-03-21T14:48:22.369Z,42.15
2023-03-21T14:49:23.280Z,42.10
2023-03-21T14:50:23.260Z,42.17
2023-03-21T14:51:23.383Z,42.12
2023-03-21T14:52:22.245Z,42.19
2023-03-21T14:53:23.228Z,42.12
2023-03-21T14:54:23.226Z,42.15
2023-03-21T14:55:23.226Z,42.15
2023-03-21T14:56:23.230Z,42.13
2023-03-21T14:57:23.216Z,42.08
2023-03-21T14:58:23.228Z,42.05
2023-03-21T14:59:23.193Z,42.08
2023-03-21T15:00:23.190Z,42.05
2023-03-21T15:01:23.263Z,42.05
2023-03-21T15:02:23.212Z,42.02
2023-03-21T15:03:22.184Z,42.01
2023-03-21T15:04:23.177Z,42.05
2023-03-21T15:05:22.238Z,42.05
2023-03-21T15:06:23.223Z,42.02
2023-03-21T15:07:23.297Z,42.04
2023-03-21T15:08:23.135Z,41.94
2023-03-21T15:09:23.157Z,42.06
2023-03-21T15:10:23.137Z,42.12
2023-03-21T15:11:23.126Z,42.10
2023-03-21T15:12:23.127Z,42.10
2023-03-21T15:13:23.156Z,42.13
2023-03-21T15:14:23.100Z,42.03
2023-03-21T15:15:22.103Z,41.96
2023-03-21T15:16:23.155Z,42.04
2023-03-21T15:17:23.078Z,42.10
2023-03-21T15:18:23.076Z,42.10
2023-03-21T15:19:23.335Z,41.99
2023-03-21T15:20:23.129Z,42.06
2023-03-21T15:21:23.123Z,42.12
2023-03-21T15:22:23.137Z,42.04
2023-03-21T15:23:23.332Z,42.04
2023-03-21T15:24:23.290Z,42.06
2023-03-21T15:25:22.246Z,42.07
2023-03-21T15:26:22.288Z,42.10
2023-03-21T15:27:23.232Z,42.00
2023-03-21T15:28:22.245Z,42.02
2023-03-21T15:29:23.235Z,41.87
2023-03-21T15:30:23.248Z,41.92
2023-03-21T15:31:23.380Z,42.14
2023-03-21T15:32:23.241Z,42.09
2023-03-21T15:33:23.241Z,42.05
2023-03-21T15:34:23.245Z,42.09
2023-03-21T15:35:23.251Z,42.18
2023-03-21T15:36:23.340Z,42.14
2023-03-21T15:37:23.242Z,42.13
2023-03-21T15:38:23.259Z,42.10
2023-03-21T15:39:23.375Z,42.17
2023-03-21T15:40:23.262Z,42.20
2023-03-21T15:41:23.289Z,42.02
2023-03-21T15:42:23.299Z,42.18
2023-03-21T15:43:23.290Z,42.17
2023-03-21T15:44:23.271Z,42.18
2023-03-21T15:45:22.276Z,42.11
2023-03-21T15:46:23.791Z,42.12
2023-03-21T15:47:22.293Z,42.15
2023-03-21T15:54:22.330Z,42.04
2023-03-21T15:57:23.354Z,42.04
2023-03-21T16:00:22.435Z,42.02
2023-03-21T16:01:23.479Z,42.06
2023-03-21T16:07:23.493Z,42.03
2023-03-21T16:13:23.592Z,42.14
2023-03-21T16:16:22.658Z,42.12
2023-03-21T16:18:23.598Z,42.11
2023-03-21T16:21:23.635Z,42.07
